Time;durP1;ratioP1;P1;durP2;ratioP2;P2;SDS_P1;SDS_P2;PMS_P1;PMS_P2;Temp;Humidity;BMP_temperature;BMP_pressure;BME280_temperature;BME280_humidity;BME280_pressure;Samples;Min_cycle;Max_cycle;Signal;HPM_P1;HPM_P2
2020/12/21 00:01:47;;;;;;;12.67;11.00;;;7.60;99.90;;;;;;5080030;28;20241;-77
2020/12/21 00:04:13;;;;;;;12.47;9.73;;;7.60;99.90;;;;;;5082121;28;20676;-77
2020/12/21 00:06:39;;;;;;;13.33;10.10;;;7.60;99.90;;;;;;5082599;28;20434;-77
2020/12/21 00:09:04;;;;;;;12.63;8.10;;;7.60;99.90;;;;;;5083159;28;20502;-77
2020/12/21 00:11:40;;;;;;;8.23;6.40;;;7.60;99.90;;;;;;5080525;28;20203;-77
2020/12/21 00:14:07;;;;;;;4.93;4.50;;;7.70;99.90;;;;;;5091320;28;20209;-77
2020/12/21 00:16:44;;;;;;;2.70;2.43;;;7.70;99.90;;;;;;5084937;28;20769;-76
2020/12/21 00:19:11;;;;;;;3.67;2.30;;;7.80;99.90;;;;;;5084274;28;20449;-77
2020/12/21 00:21:37;;;;;;;1.57;1.50;;;7.90;99.90;;;;;;5085062;28;20896;-76
2020/12/21 00:24:04;;;;;;;1.83;1.73;;;7.90;99.90;;;;;;5084361;28;20499;-76
2020/12/21 00:26:29;;;;;;;1.57;1.47;;;8.00;99.90;;;;;;5086689;28;20514;-76
2020/12/21 00:28:56;;;;;;;1.83;1.73;;;8.10;99.90;;;;;;5087986;28;20965;-76
2020/12/21 00:31:23;;;;;;;1.40;1.30;;;8.10;99.90;;;;;;5086334;28;20215;-76
2020/12/21 00:33:49;;;;;;;0.97;0.90;;;8.30;99.90;;;;;;5076260;28;20785;-76
2020/12/21 00:36:15;;;;;;;1.60;1.50;;;8.30;99.90;;;;;;5087275;28;20430;-76
2020/12/21 00:38:40;;;;;;;2.00;1.80;;;8.40;99.90;;;;;;5091542;28;20198;-76
2020/12/21 00:41:13;;;;;;;1.67;1.03;;;8.50;99.90;;;;;;5087999;28;20453;-76
2020/12/21 00:43:39;;;;;;;2.10;1.03;;;8.60;99.90;;;;;;5114007;27;20204;-76
2020/12/21 00:46:05;;;;;;;1.37;1.27;;;8.50;99.90;;;;;;5088847;28;20450;-76
2020/12/21 00:48:31;;;;;;;1.77;1.50;;;8.40;99.90;;;;;;5087010;28;20922;-76
2020/12/21 00:50:57;;;;;;;2.10;1.27;;;8.40;99.90;;;;;;5081516;28;20196;-76
2020/12/21 00:53:23;;;;;;;1.40;1.30;;;8.40;99.90;;;;;;5081695;28;20325;-76
2020/12/21 00:55:49;;;;;;;3.10;1.53;;;8.30;99.90;;;;;;5084660;28;20431;-76
2020/12/21 00:58:15;;;;;;;1.90;1.80;;;8.30;99.90;;;;;;5083482;28;20421;-76
2020/12/21 01:00:41;;;;;;;2.97;1.20;;;8.30;99.90;;;;;;5084847;28;20183;-76
2020/12/21 01:03:07;;;;;;;2.57;1.00;;;8.30;99.90;;;;;;5084677;28;20911;-76
2020/12/21 01:05:32;;;;;;;1.53;1.43;;;8.30;99.90;;;;;;5082010;28;20247;-76
2020/12/21 01:07:58;;;;;;;1.47;1.37;;;8.30;99.90;;;;;;5085719;28;20183;-76
2020/12/21 01:10:23;;;;;;;2.30;1.40;;;8.30;99.90;;;;;;5082424;28;20217;-76
2020/12/21 01:12:49;;;;;;;2.97;1.50;;;8.20;99.90;;;;;;5084145;28;20206;-76
2020/12/21 01:15:14;;;;;;;1.60;1.37;;;8.30;99.90;;;;;;5083342;28;20629;-76
2020/12/21 01:17:39;;;;;;;1.50;1.30;;;8.30;99.90;;;;;;5082841;28;20191;-76
2020/12/21 01:20:05;;;;;;;1.37;1.27;;;8.40;99.90;;;;;;5083138;28;20238;-76
2020/12/21 01:22:31;;;;;;;1.60;1.50;;;8.40;99.90;;;;;;5081260;28;20226;-76
2020/12/21 01:24:56;;;;;;;1.30;1.30;;;8.40;99.90;;;;;;5083603;28;20585;-76
2020/12/21 01:27:22;;;;;;;1.30;1.20;;;8.40;99.90;;;;;;5080811;28;20237;-76
2020/12/21 01:29:47;;;;;;;2.10;2.00;;;8.40;99.90;;;;;;5082786;28;20650;-78
2020/12/21 01:32:13;;;;;;;2.50;1.40;;;8.30;99.90;;;;;;5082808;28;20200;-76
2020/12/21 01:34:39;;;;;;;1.93;1.67;;;8.30;99.90;;;;;;5082463;28;20187;-76
2020/12/21 01:37:04;;;;;;;2.67;1.43;;;8.30;99.90;;;;;;5083755;28;20234;-76
2020/12/21 01:39:30;;;;;;;1.53;1.43;;;8.30;99.90;;;;;;5080407;28;20420;-76
2020/12/21 01:41:56;;;;;;;1.40;1.30;;;8.30;99.90;;;;;;5081195;28;20193;-76
2020/12/21 01:44:21;;;;;;;1.73;1.63;;;8.30;99.90;;;;;;5084114;28;20940;-76
2020/12/21 01:46:47;;;;;;;2.10;1.70;;;8.20;99.90;;;;;;5082334;28;20260;-76
2020/12/21 01:49:13;;;;;;;2.63;1.53;;;8.20;99.90;;;;;;5082866;28;20188;-76
2020/12/21 01:51:38;;;;;;;1.70;1.60;;;8.10;99.90;;;;;;5083039;28;20701;-76
2020/12/21 01:54:05;;;;;;;1.90;1.80;;;8.10;99.90;;;;;;5081336;28;20239;-76
2020/12/21 01:56:31;;;;;;;3.90;3.10;;;8.00;99.90;;;;;;5084294;28;20179;-76
2020/12/21 01:58:57;;;;;;;6.10;4.93;;;8.00;99.90;;;;;;5081121;28;20490;-76
2020/12/21 02:01:24;;;;;;;11.90;5.77;;;7.90;99.90;;;;;;5083805;28;20464;-76
2020/12/21 02:03:50;;;;;;;6.70;5.53;;;7.90;99.90;;;;;;5081353;28;20515;-77
2020/12/21 02:06:17;;;;;;;10.03;8.10;;;7.80;99.90;;;;;;5083066;28;20415;-77
2020/12/21 02:08:42;;;;;;;8.57;7.77;;;7.70;99.90;;;;;;5082418;28;20665;-76
2020/12/21 02:11:08;;;;;;;9.97;7.20;;;7.60;99.90;;;;;;5080497;28;20470;-76
2020/12/21 02:13:34;;;;;;;10.83;7.47;;;7.50;99.90;;;;;;5083334;28;20655;-76
2020/12/21 02:16:01;;;;;;;12.07;7.90;;;7.40;99.90;;;;;;5080899;28;20186;-76
2020/12/21 02:18:26;;;;;;;11.07;7.30;;;7.30;99.90;;;;;;5080419;28;20232;-77
2020/12/21 02:20:52;;;;;;;7.97;6.53;;;7.20;99.90;;;;;;5083442;28;20473;-75
2020/12/21 02:23:17;;;;;;;7.30;5.83;;;7.10;99.90;;;;;;5080538;28;20214;-76
2020/12/21 02:25:43;;;;;;;9.70;6.87;;;7.00;99.90;;;;;;5082035;28;20190;-76
2020/12/21 02:28:09;;;;;;;9.97;6.67;;;6.80;99.90;;;;;;5081716;28;20447;-76
2020/12/21 02:30:34;;;;;;;7.77;6.80;;;6.80;99.90;;;;;;5081264;28;20444;-76
2020/12/21 02:33:00;;;;;;;11.23;7.90;;;6.70;99.90;;;;;;5077224;28;20467;-77
2020/12/21 02:35:25;;;;;;;8.23;7.00;;;6.60;99.90;;;;;;5080554;28;20188;-76
2020/12/21 02:37:51;;;;;;;9.47;8.47;;;6.50;99.90;;;;;;5080606;28;20233;-77
2020/12/21 02:40:16;;;;;;;10.73;7.40;;;6.50;99.90;;;;;;5082519;28;20181;-76
2020/12/21 02:42:42;;;;;;;10.07;8.50;;;6.50;99.90;;;;;;5081407;28;20615;-76
2020/12/21 02:45:07;;;;;;;8.80;7.63;;;6.40;99.90;;;;;;5081814;28;20187;-76
2020/12/21 02:47:33;;;;;;;9.50;7.80;;;6.40;99.90;;;;;;5080981;28;20184;-77
2020/12/21 02:49:58;;;;;;;10.00;7.20;;;6.40;99.90;;;;;;5078495;28;20230;-77
2020/12/21 02:52:24;;;;;;;9.20;7.03;;;6.40;99.90;;;;;;5084011;28;20609;-76
2020/12/21 02:54:49;;;;;;;8.03;7.20;;;6.30;99.90;;;;;;5082298;28;20275;-76
2020/12/21 02:57:15;;;;;;;9.20;8.27;;;6.30;99.90;;;;;;5084176;28;20179;-76
2020/12/21 02:59:41;;;;;;;7.67;6.97;;;6.30;99.90;;;;;;5080921;28;20682;-76
2020/12/21 03:02:07;;;;;;;8.40;6.97;;;6.20;99.90;;;;;;5085491;28;20245;-77
2020/12/21 03:04:33;;;;;;;7.90;7.10;;;6.30;99.90;;;;;;5081786;28;20494;-76
2020/12/21 03:07:00;;;;;;;6.63;5.63;;;6.20;99.90;;;;;;5080738;28;20238;-76
2020/12/21 03:09:25;;;;;;;8.00;7.00;;;6.20;99.90;;;;;;5079604;28;20940;-76
2020/12/21 03:11:51;;;;;;;10.10;7.40;;;6.10;99.90;;;;;;5081244;28;20462;-76
2020/12/21 03:14:16;;;;;;;8.40;6.60;;;6.10;99.90;;;;;;5081009;28;20522;-76
2020/12/21 03:16:42;;;;;;;7.27;6.53;;;6.10;99.90;;;;;;5085907;28;20651;-76
2020/12/21 03:19:07;;;;;;;6.73;6.10;;;6.00;99.90;;;;;;5083020;28;20194;-76
2020/12/21 03:21:33;;;;;;;6.47;5.80;;;6.00;99.90;;;;;;5080376;28;20543;-76
2020/12/21 03:23:59;;;;;;;7.53;6.47;;;5.90;99.90;;;;;;5081405;28;20573;-76
2020/12/21 03:26:24;;;;;;;6.07;5.10;;;5.80;99.90;;;;;;5079793;28;20181;-76
2020/12/21 03:28:50;;;;;;;9.30;5.63;;;5.80;99.90;;;;;;5081893;28;20388;-76
2020/12/21 03:31:16;;;;;;;6.70;4.50;;;5.70;99.90;;;;;;5080397;28;20223;-76
2020/12/21 03:33:41;;;;;;;6.20;4.37;;;5.60;99.90;;;;;;5081500;28;20217;-76
2020/12/21 03:36:07;;;;;;;4.23;3.67;;;5.60;99.90;;;;;;5081427;28;20202;-76
2020/12/21 03:38:32;;;;;;;4.40;4.00;;;5.50;99.90;;;;;;5082677;28;20179;-76
2020/12/21 03:40:58;;;;;;;5.10;4.60;;;5.50;99.90;;;;;;5079018;28;20201;-76
2020/12/21 03:43:23;;;;;;;6.67;5.60;;;5.40;99.90;;;;;;5080283;28;20246;-76
2020/12/21 03:45:49;;;;;;;10.23;5.40;;;5.30;99.90;;;;;;5080149;28;20175;-76
2020/12/21 03:48:15;;;;;;;5.13;4.63;;;5.20;99.90;;;;;;5079646;28;20183;-76
2020/12/21 03:50:41;;;;;;;6.40;5.20;;;5.20;99.90;;;;;;5081152;28;20184;-76
2020/12/21 03:53:06;;;;;;;6.03;5.10;;;5.10;99.90;;;;;;5081056;28;20445;-76
2020/12/21 03:55:32;;;;;;;7.43;6.00;;;5.10;99.90;;;;;;5079731;28;20183;-76
2020/12/21 03:57:57;;;;;;;7.77;6.30;;;5.10;99.90;;;;;;5082451;28;20254;-76
2020/12/21 04:00:23;;;;;;;5.87;5.10;;;4.90;99.90;;;;;;5079580;28;20187;-76
2020/12/21 04:02:48;;;;;;;4.70;4.30;;;4.90;99.90;;;;;;5081844;28;20209;-76
2020/12/21 04:05:14;;;;;;;5.53;4.43;;;4.90;99.90;;;;;;5085078;28;20302;-76
2020/12/21 04:07:39;;;;;;;6.83;6.10;;;4.80;99.90;;;;;;5084568;28;20187;-76
2020/12/21 04:10:07;;;;;;;7.10;6.40;;;4.70;99.90;;;;;;5085528;28;20543;-76
2020/12/21 04:12:34;;;;;;;9.47;6.27;;;4.60;99.90;;;;;;5081082;28;20610;-76
2020/12/21 04:14:59;;;;;;;6.23;5.63;;;4.60;99.90;;;;;;5084456;28;20435;-76
2020/12/21 04:17:25;;;;;;;6.00;5.40;;;4.50;99.90;;;;;;5084015;28;20834;-76
2020/12/21 04:19:50;;;;;;;5.33;4.87;;;4.50;99.90;;;;;;5083224;28;20184;-76
2020/12/21 04:22:16;;;;;;;5.53;5.03;;;4.50;99.90;;;;;;5084072;28;20199;-76
2020/12/21 04:24:42;;;;;;;5.50;4.70;;;4.40;99.90;;;;;;5082612;28;20190;-76
2020/12/21 04:27:07;;;;;;;6.60;5.70;;;4.40;99.90;;;;;;5083703;28;20618;-76
2020/12/21 04:29:33;;;;;;;8.03;6.10;;;4.30;99.90;;;;;;5084806;28;20687;-76
2020/12/21 04:31:58;;;;;;;8.30;6.60;;;4.30;99.90;;;;;;5084799;28;20216;-74
2020/12/21 04:34:26;;;;;;;11.50;6.90;;;4.30;99.90;;;;;;5082717;28;20185;-76
2020/12/21 04:36:53;;;;;;;10.93;5.80;;;4.30;99.90;;;;;;5083269;28;20672;-76
2020/12/21 04:39:21;;;;;;;6.63;5.90;;;4.30;99.90;;;;;;5084331;28;20420;-76
2020/12/21 04:41:57;;;;;;;5.70;5.20;;;4.30;99.90;;;;;;5084374;28;20427;-76
2020/12/21 04:44:23;;;;;;;6.53;5.83;;;4.20;99.90;;;;;;5083622;28;20476;-76
2020/12/21 04:46:53;;;;;;;8.40;6.50;;;4.20;99.90;;;;;;5084892;28;20440;-76
2020/12/21 04:49:18;;;;;;;6.63;5.77;;;4.30;99.90;;;;;;5083378;28;20760;-75
2020/12/21 04:51:46;;;;;;;8.23;5.93;;;4.30;99.90;;;;;;5082615;28;20458;-76
2020/12/21 04:54:13;;;;;;;7.53;5.53;;;4.30;99.90;;;;;;5081983;28;20614;-76
2020/12/21 04:56:41;;;;;;;6.27;5.67;;;4.20;99.90;;;;;;5081653;28;20431;-76
2020/12/21 04:59:07;;;;;;;7.50;5.20;;;4.30;99.90;;;;;;5084955;28;20734;-75
2020/12/21 05:01:33;;;;;;;8.80;6.43;;;4.30;99.90;;;;;;5080666;28;20937;-76
2020/12/21 05:03:58;;;;;;;9.03;7.27;;;4.30;99.90;;;;;;5085208;28;20476;-75
2020/12/21 05:06:24;;;;;;;9.30;6.80;;;4.30;99.90;;;;;;5079976;28;20185;-75
2020/12/21 05:09:00;;;;;;;6.90;6.27;;;4.40;99.90;;;;;;5086497;28;20614;-76
2020/12/21 05:11:26;;;;;;;6.80;5.80;;;4.40;99.90;;;;;;5082219;28;20195;-76
2020/12/21 05:13:51;;;;;;;6.97;6.30;;;4.40;99.90;;;;;;5082082;28;20953;-75
2020/12/21 05:16:24;;;;;;;9.30;7.10;;;4.50;99.90;;;;;;5084919;28;20280;-75
2020/12/21 05:18:49;;;;;;;8.60;7.80;;;4.50;99.90;;;;;;5084681;28;20189;-77
2020/12/21 05:21:15;;;;;;;9.30;7.53;;;4.50;99.90;;;;;;5083772;28;20479;-75
2020/12/21 05:23:55;;;;;;;7.77;6.97;;;4.60;99.90;;;;;;5086692;28;20604;-76
2020/12/21 05:26:26;;;;;;;10.37;6.63;;;4.60;99.90;;;;;;5081183;28;20272;-75
2020/12/21 05:28:52;;;;;;;11.97;7.30;;;4.60;99.90;;;;;;5084263;28;20445;-76
2020/12/21 05:31:17;;;;;;;9.50;7.13;;;4.60;99.90;;;;;;5082437;28;20465;-75
2020/12/21 05:33:44;;;;;;;5.80;5.30;;;4.70;99.90;;;;;;5083570;28;20197;-76
2020/12/21 05:36:15;;;;;;;8.80;6.40;;;4.70;99.90;;;;;;5082343;28;20190;-75
2020/12/21 05:38:42;;;;;;;13.33;6.20;;;4.80;99.90;;;;;;5082913;28;20958;-75
2020/12/21 05:41:16;;;;;;;9.97;6.83;;;4.80;99.90;;;;;;5083637;28;20432;-76
2020/12/21 05:43:43;;;;;;;7.77;6.40;;;4.80;99.90;;;;;;5081646;28;20519;-76
2020/12/21 05:46:11;;;;;;;8.00;7.17;;;4.90;99.90;;;;;;5083689;28;20867;-76
2020/12/21 05:48:45;;;;;;;7.73;6.53;;;4.90;99.90;;;;;;5083847;28;20433;-76
2020/12/21 05:51:20;;;;;;;10.20;6.80;;;5.00;99.90;;;;;;5082596;28;20436;-74
2020/12/21 05:53:45;;;;;;;8.70;6.63;;;5.00;99.90;;;;;;5081013;28;20821;-75
2020/12/21 05:56:11;;;;;;;7.57;6.47;;;4.90;99.90;;;;;;5082406;28;20419;-76
2020/12/21 05:58:39;;;;;;;9.07;6.20;;;5.00;99.90;;;;;;5083454;28;20176;-75
2020/12/21 06:01:08;;;;;;;8.10;7.07;;;5.00;99.90;;;;;;5083538;28;20464;-75
2020/12/21 06:03:47;;;;;;;8.77;7.53;;;5.00;99.90;;;;;;5081756;28;20839;-76
2020/12/21 06:06:27;;;;;;;7.07;6.20;;;4.90;99.90;;;;;;5082485;28;20393;-76
2020/12/21 06:08:54;;;;;;;12.90;8.00;;;4.90;99.90;;;;;;5080375;28;20497;-75
2020/12/21 06:11:24;;;;;;;7.73;6.87;;;4.90;99.90;;;;;;5080745;28;20465;-75
2020/12/21 06:13:56;;;;;;;9.03;6.87;;;4.90;99.90;;;;;;5080008;28;20425;-76
2020/12/21 06:16:24;;;;;;;10.47;7.47;;;4.90;99.90;;;;;;5080584;28;20400;-75
2020/12/21 06:18:56;;;;;;;9.40;7.03;;;4.90;99.90;;;;;;5081549;28;20444;-76
2020/12/21 06:21:27;;;;;;;8.80;6.90;;;4.90;99.90;;;;;;5080300;28;20457;-76
2020/12/21 06:23:53;;;;;;;9.10;6.30;;;5.00;99.90;;;;;;5080257;28;20682;-76
2020/12/21 06:26:29;;;;;;;12.23;8.73;;;5.00;99.90;;;;;;5083067;28;20436;-77
2020/12/21 06:28:58;;;;;;;7.97;7.13;;;5.00;99.90;;;;;;5082225;28;20487;-74
2020/12/21 06:31:24;;;;;;;8.10;6.17;;;5.00;99.90;;;;;;5081142;28;20458;-73
2020/12/21 06:33:49;;;;;;;6.40;5.80;;;5.00;99.90;;;;;;5082791;28;20403;-73
2020/12/21 06:36:15;;;;;;;9.57;7.03;;;5.00;99.90;;;;;;5081338;28;20633;-74
2020/12/21 06:38:52;;;;;;;8.73;7.40;;;5.00;99.90;;;;;;5082407;28;20188;-75
2020/12/21 06:41:23;;;;;;;7.67;6.90;;;5.00;99.90;;;;;;5080784;28;20212;-77
2020/12/21 06:44:07;;;;;;;9.50;7.50;;;5.10;99.90;;;;;;5082535;28;20465;-77
2020/12/21 06:46:36;;;;;;;11.87;8.03;;;5.00;99.90;;;;;;5080617;28;20459;-76
2020/12/21 06:49:04;;;;;;;11.40;6.70;;;5.00;99.90;;;;;;5082915;28;20426;-76
2020/12/21 06:51:30;;;;;;;9.77;7.50;;;4.90;99.90;;;;;;5084812;28;20416;-76
2020/12/21 06:54:03;;;;;;;10.50;7.50;;;4.90;99.90;;;;;;5084294;28;20455;-76
2020/12/21 06:56:28;;;;;;;12.27;7.90;;;4.90;99.90;;;;;;5084729;28;20459;-76
2020/12/21 06:58:56;;;;;;;8.63;7.73;;;5.00;99.90;;;;;;5080587;28;20526;-76
2020/12/21 07:01:23;;;;;;;9.43;7.20;;;5.00;99.90;;;;;;5082408;28;20203;-76
2020/12/21 07:03:49;;;;;;;9.87;7.43;;;5.00;99.90;;;;;;5081682;28;20487;-76
2020/12/21 07:06:15;;;;;;;9.10;6.73;;;5.00;99.90;;;;;;5081336;28;20826;-75
2020/12/21 07:08:41;;;;;;;13.33;8.37;;;5.10;99.90;;;;;;5080218;28;20441;-76
2020/12/21 07:11:12;;;;;;;13.70;9.10;;;5.10;99.90;;;;;;5080289;28;20455;-76
2020/12/21 07:13:38;;;;;;;12.47;8.70;;;5.10;99.90;;;;;;5082197;28;20813;-76
2020/12/21 07:16:06;;;;;;;13.30;9.73;;;5.20;99.90;;;;;;5078500;28;20441;-76
2020/12/21 07:18:31;;;;;;;15.47;9.50;;;5.20;99.90;;;;;;5080828;28;20191;-76
2020/12/21 07:20:57;;;;;;;17.80;10.73;;;5.20;99.90;;;;;;5086475;28;20452;-75
2020/12/21 07:23:23;;;;;;;18.30;11.37;;;5.20;99.90;;;;;;5079341;28;20697;-76
2020/12/21 07:25:52;;;;;;;19.90;11.43;;;5.20;99.90;;;;;;5080388;28;20180;-76
2020/12/21 07:28:28;;;;;;;13.40;11.20;;;5.30;99.90;;;;;;5081882;28;20418;-76
2020/12/21 07:31:10;;;;;;;16.97;11.90;;;5.30;99.90;;;;;;5080079;28;20454;-76
2020/12/21 07:33:48;;;;;;;15.73;12.30;;;5.40;99.90;;;;;;5077554;28;20954;-75
2020/12/21 07:36:15;;;;;;;18.37;11.60;;;5.30;99.90;;;;;;5081282;28;20472;-75
2020/12/21 07:38:40;;;;;;;17.90;12.27;;;5.40;99.90;;;;;;5077912;28;20425;-76
2020/12/21 07:41:06;;;;;;;18.40;12.30;;;5.40;99.90;;;;;;5078316;28;20523;-77
2020/12/21 07:43:38;;;;;;;16.20;11.80;;;5.40;99.90;;;;;;5082305;28;20203;-76
2020/12/21 07:46:08;;;;;;;17.00;12.23;;;5.40;99.90;;;;;;5077476;28;20720;-76
2020/12/21 07:48:34;;;;;;;16.77;12.40;;;5.40;99.90;;;;;;5082415;28;20409;-76
2020/12/21 07:51:05;;;;;;;17.27;13.10;;;5.40;99.90;;;;;;5086302;28;20788;-75
2020/12/21 07:53:34;;;;;;;15.77;12.30;;;5.40;99.90;;;;;;5082283;28;20424;-77
2020/12/21 07:55:59;;;;;;;15.30;11.30;;;5.40;99.90;;;;;;5082821;28;20445;-76
2020/12/21 07:58:25;;;;;;;16.20;10.90;;;5.40;99.90;;;;;;5079889;28;20438;-76
2020/12/21 08:00:55;;;;;;;15.37;11.53;;;5.40;99.90;;;;;;5081316;28;20219;-76
2020/12/21 08:03:23;;;;;;;14.60;11.50;;;5.50;99.90;;;;;;5077696;28;20568;-76
2020/12/21 08:05:49;;;;;;;15.47;11.40;;;5.40;99.90;;;;;;5081209;28;20395;-75
2020/12/21 08:08:14;;;;;;;17.10;11.67;;;5.40;99.90;;;;;;5080246;28;20487;-76
2020/12/21 08:10:40;;;;;;;16.83;11.77;;;5.50;99.90;;;;;;5078820;28;20543;-77
2020/12/21 08:13:17;;;;;;;16.20;11.70;;;5.50;99.90;;;;;;5079677;28;20191;-77
2020/12/21 08:15:42;;;;;;;16.57;12.03;;;5.60;99.90;;;;;;5077775;28;20172;-77
2020/12/21 08:18:14;;;;;;;16.60;12.57;;;5.70;99.90;;;;;;5079145;28;20447;-77
2020/12/21 08:20:49;;;;;;;18.37;12.77;;;5.70;99.90;;;;;;5080752;28;20260;-77
2020/12/21 08:23:30;;;;;;;13.50;11.30;;;5.70;99.90;;;;;;5081918;28;20451;-77
2020/12/21 08:25:56;;;;;;;16.60;12.80;;;5.70;99.90;;;;;;5081832;28;20447;-76
2020/12/21 08:28:39;;;;;;;16.10;11.10;;;5.70;99.90;;;;;;5079647;28;20428;-77
2020/12/21 08:31:13;;;;;;;15.30;11.10;;;5.80;99.90;;;;;;5076541;28;20435;-77
2020/12/21 08:33:43;;;;;;;16.23;12.00;;;5.80;99.90;;;;;;5082696;28;20445;-77
2020/12/21 08:36:20;;;;;;;13.13;11.33;;;5.90;99.90;;;;;;5081516;28;20417;-78
2020/12/21 08:38:46;;;;;;;14.80;11.93;;;5.90;99.90;;;;;;5079204;28;20567;-77
2020/12/21 08:41:12;;;;;;;18.60;12.50;;;6.00;99.90;;;;;;5079688;28;20541;-77
2020/12/21 08:43:38;;;;;;;15.60;12.47;;;6.00;99.90;;;;;;5081105;28;20530;-76
2020/12/21 08:46:11;;;;;;;15.50;11.10;;;6.10;99.90;;;;;;5080257;28;20441;-77
2020/12/21 08:48:41;;;;;;;18.63;12.33;;;6.10;99.90;;;;;;5085792;28;20489;-77
2020/12/21 08:51:07;;;;;;;19.90;11.83;;;6.20;99.90;;;;;;5085686;28;20795;-77
2020/12/21 08:53:33;;;;;;;13.97;10.97;;;6.20;99.90;;;;;;5080059;28;20449;-77
2020/12/21 08:55:58;;;;;;;17.13;10.93;;;6.20;99.90;;;;;;5084671;28;20924;-76
2020/12/21 08:58:24;;;;;;;13.97;10.93;;;6.30;99.90;;;;;;5081411;28;20658;-77
2020/12/21 09:00:50;;;;;;;17.40;12.10;;;6.30;99.90;;;;;;5084224;28;20337;-77
2020/12/21 09:03:16;;;;;;;14.40;10.67;;;6.40;99.90;;;;;;5084528;28;20928;-77
2020/12/21 09:05:41;;;;;;;18.03;11.20;;;6.40;99.90;;;;;;5083166;28;20183;-77
2020/12/21 09:08:07;;;;;;;16.50;10.53;;;6.40;99.90;;;;;;5090302;28;20188;-77
2020/12/21 09:10:32;;;;;;;11.37;8.53;;;6.50;99.90;;;;;;5084618;28;20540;-77
2020/12/21 09:12:57;;;;;;;14.60;10.40;;;6.50;99.90;;;;;;5079607;28;20215;-76
2020/12/21 09:15:23;;;;;;;12.83;10.27;;;6.60;99.90;;;;;;5083866;28;20185;-76
2020/12/21 09:17:48;;;;;;;13.97;9.87;;;6.70;99.90;;;;;;5081083;28;20191;-77
2020/12/21 09:20:14;;;;;;;12.73;9.13;;;6.70;99.90;;;;;;5082693;28;20176;-77
2020/12/21 09:22:40;;;;;;;18.03;8.80;;;6.80;99.90;;;;;;5082513;28;20204;-77
2020/12/21 09:25:05;;;;;;;12.40;7.80;;;6.80;99.90;;;;;;5080643;28;20553;-77
2020/12/21 09:27:31;;;;;;;7.80;7.00;;;6.90;99.90;;;;;;5085169;28;20634;-78
2020/12/21 09:29:56;;;;;;;10.30;8.13;;;7.00;99.90;;;;;;5080732;28;20963;-78
2020/12/21 09:32:22;;;;;;;10.70;7.53;;;7.10;99.90;;;;;;5082817;28;20216;-77
2020/12/21 09:34:48;;;;;;;12.17;8.50;;;7.10;99.90;;;;;;5081087;28;20198;-78
2020/12/21 09:37:14;;;;;;;9.80;8.10;;;7.20;99.90;;;;;;5087714;28;20283;-77
2020/12/21 09:39:40;;;;;;;12.90;9.60;;;7.20;99.90;;;;;;5081282;28;20436;-77
2020/12/21 09:42:05;;;;;;;16.27;9.40;;;7.20;99.90;;;;;;5081598;28;20212;-77
2020/12/21 09:44:31;;;;;;;13.57;8.87;;;7.30;99.90;;;;;;5083240;28;20805;-77
2020/12/21 09:46:56;;;;;;;11.93;8.80;;;7.30;99.90;;;;;;5086213;28;20196;-77
2020/12/21 09:49:22;;;;;;;11.13;7.90;;;7.40;99.90;;;;;;5081832;28;20660;-77
2020/12/21 09:51:51;;;;;;;8.93;8.10;;;7.40;99.90;;;;;;5083618;28;20202;-77
2020/12/21 09:54:18;;;;;;;11.53;7.53;;;7.40;99.90;;;;;;5082797;28;20217;-78
2020/12/21 09:56:47;;;;;;;17.23;8.00;;;7.40;99.90;;;;;;5083009;28;20443;-78
2020/12/21 09:59:13;;;;;;;15.93;8.73;;;7.50;99.90;;;;;;5081776;28;20485;-77
2020/12/21 10:01:38;;;;;;;12.60;8.03;;;7.60;99.90;;;;;;5082574;28;20499;-78
2020/12/21 10:04:04;;;;;;;9.50;7.97;;;7.60;99.90;;;;;;5084984;28;20214;-76
2020/12/21 10:06:29;;;;;;;10.43;6.97;;;7.60;99.90;;;;;;5083645;28;20189;-77
2020/12/21 10:08:55;;;;;;;11.90;7.53;;;7.70;99.90;;;;;;5085147;28;20188;-77
2020/12/21 10:11:20;;;;;;;11.47;7.60;;;7.80;99.90;;;;;;5082749;28;20303;-78
2020/12/21 10:13:48;;;;;;;9.07;8.17;;;7.80;99.90;;;;;;5082651;28;20183;-77
2020/12/21 10:16:13;;;;;;;11.07;7.20;;;7.90;99.90;;;;;;5081434;28;20227;-76
2020/12/21 10:18:39;;;;;;;9.33;7.23;;;7.90;99.90;;;;;;5082361;28;20778;-77
2020/12/21 10:21:06;;;;;;;12.73;7.50;;;7.90;99.90;;;;;;5079496;28;20455;-77
2020/12/21 10:23:31;;;;;;;15.10;7.17;;;7.90;99.90;;;;;;5081697;28;20246;-76
2020/12/21 10:26:01;;;;;;;13.00;7.17;;;8.00;99.90;;;;;;5080291;28;20453;-76
2020/12/21 10:28:27;;;;;;;12.73;7.73;;;8.00;99.90;;;;;;5082404;28;20213;-77
2020/12/21 10:30:53;;;;;;;15.23;7.90;;;8.00;99.90;;;;;;5081159;28;20577;-77
2020/12/21 10:33:18;;;;;;;9.40;7.83;;;8.00;99.90;;;;;;5082169;28;20533;-77
2020/12/21 10:35:44;;;;;;;10.70;7.97;;;8.10;99.90;;;;;;5082067;28;20240;-78
2020/12/21 10:38:09;;;;;;;8.07;7.27;;;8.10;99.90;;;;;;5079871;28;20186;-77
2020/12/21 10:40:35;;;;;;;9.77;7.53;;;8.10;99.90;;;;;;5080873;28;20669;-77
2020/12/21 10:43:01;;;;;;;11.60;7.80;;;8.10;99.90;;;;;;5083542;28;20237;-77
2020/12/21 10:45:26;;;;;;;8.40;7.60;;;8.20;99.90;;;;;;5079536;28;20261;-77
2020/12/21 10:47:52;;;;;;;12.67;7.30;;;8.20;99.90;;;;;;5082750;28;20660;-77
2020/12/21 10:50:18;;;;;;;12.53;7.13;;;8.20;99.90;;;;;;5080038;28;20178;-77
2020/12/21 10:52:43;;;;;;;9.10;6.70;;;8.20;99.90;;;;;;5081875;28;20201;-77
2020/12/21 10:55:09;;;;;;;12.80;7.27;;;8.20;99.90;;;;;;5082354;28;20559;-77
2020/12/21 10:57:34;;;;;;;13.23;8.63;;;8.20;99.90;;;;;;5083893;28;20220;-77
2020/12/21 11:00:00;;;;;;;10.67;7.37;;;8.20;99.90;;;;;;5082400;28;20185;-77
2020/12/21 11:02:25;;;;;;;9.87;8.63;;;8.20;99.90;;;;;;5085477;28;20683;-77
2020/12/21 11:04:51;;;;;;;11.70;6.17;;;8.30;99.90;;;;;;5083825;28;20219;-77
2020/12/21 11:07:17;;;;;;;8.50;6.00;;;8.30;99.90;;;;;;5082611;28;20194;-77
2020/12/21 11:09:43;;;;;;;10.83;6.23;;;8.40;99.90;;;;;;5079592;28;20555;-77
2020/12/21 11:12:09;;;;;;;7.27;6.00;;;8.40;99.90;;;;;;5082457;28;20457;-77
2020/12/21 11:14:34;;;;;;;12.57;6.60;;;8.50;99.90;;;;;;5078668;28;20414;-77
2020/12/21 11:17:00;;;;;;;6.70;2.70;;;8.60;99.90;;;;;;5080058;28;20201;-77
2020/12/21 11:19:25;;;;;;;10.63;3.10;;;8.60;99.90;;;;;;5081888;28;20539;-77
2020/12/21 11:21:51;;;;;;;6.00;2.80;;;8.70;99.90;;;;;;5081574;28;20257;-78
2020/12/21 11:24:16;;;;;;;3.47;2.20;;;8.80;99.90;;;;;;5081551;28;20221;-78
2020/12/21 11:26:42;;;;;;;2.17;1.83;;;8.90;99.90;;;;;;5080194;28;20179;-77
2020/12/21 11:29:07;;;;;;;1.97;1.53;;;9.00;99.90;;;;;;5080557;28;20654;-77
2020/12/21 11:31:36;;;;;;;4.00;1.90;;;9.00;99.90;;;;;;5082784;28;20203;-77
2020/12/21 11:34:02;;;;;;;5.13;1.90;;;9.00;99.90;;;;;;5079358;28;20193;-77
2020/12/21 11:36:28;;;;;;;2.67;2.13;;;9.10;99.90;;;;;;5079311;28;20780;-77
2020/12/21 11:38:53;;;;;;;1.53;1.43;;;9.20;99.90;;;;;;5081842;28;20428;-77
2020/12/21 11:41:19;;;;;;;5.03;2.00;;;9.10;99.90;;;;;;5080738;28;20579;-77
2020/12/21 11:43:45;;;;;;;2.60;1.43;;;9.20;99.90;;;;;;5080264;28;20207;-76
2020/12/21 11:46:12;;;;;;;3.23;1.57;;;9.30;99.90;;;;;;5082750;28;20675;-76
2020/12/21 11:48:38;;;;;;;3.63;1.70;;;9.20;99.90;;;;;;5080661;28;20180;-77
2020/12/21 11:51:03;;;;;;;5.17;2.10;;;9.10;99.90;;;;;;5079713;28;20824;-77
2020/12/21 11:53:29;;;;;;;1.90;1.80;;;9.10;99.90;;;;;;5077239;28;20221;-77
2020/12/21 11:55:54;;;;;;;1.33;1.23;;;9.10;99.90;;;;;;5078473;28;20195;-77
2020/12/21 11:58:20;;;;;;;3.97;1.70;;;9.10;99.90;;;;;;5079131;28;20191;-77
2020/12/21 12:00:45;;;;;;;5.07;1.77;;;9.10;99.90;;;;;;5080287;28;20295;-77
2020/12/21 12:03:11;;;;;;;3.07;1.70;;;9.10;99.90;;;;;;5085753;28;20213;-76
2020/12/21 12:05:36;;;;;;;3.70;3.40;;;9.20;99.90;;;;;;5079271;28;20175;-77
2020/12/21 12:08:02;;;;;;;4.30;1.80;;;9.20;99.90;;;;;;5083131;28;20186;-77
2020/12/21 12:10:28;;;;;;;3.83;1.77;;;9.30;99.90;;;;;;5085026;28;20175;-78
2020/12/21 12:12:53;;;;;;;2.83;2.00;;;9.40;99.90;;;;;;5079320;28;20463;-75
2020/12/21 12:15:18;;;;;;;2.17;1.43;;;9.40;99.90;;;;;;5079860;28;20684;-77
2020/12/21 12:17:44;;;;;;;3.90;2.17;;;9.40;99.90;;;;;;5080541;28;20183;-78
2020/12/21 12:20:11;;;;;;;2.73;2.00;;;9.40;99.90;;;;;;5076758;28;20195;-76
2020/12/21 12:22:36;;;;;;;4.83;2.20;;;9.50;99.90;;;;;;5083621;28;20198;-77
2020/12/21 12:25:02;;;;;;;2.80;2.00;;;9.50;99.90;;;;;;5084769;28;20434;-77
2020/12/21 12:27:28;;;;;;;2.40;2.20;;;9.40;99.90;;;;;;5081538;28;20613;-76
2020/12/21 12:29:53;;;;;;;5.07;2.70;;;9.50;99.90;;;;;;5087140;28;20468;-77
2020/12/21 12:32:19;;;;;;;2.53;2.33;;;9.40;99.90;;;;;;5084682;28;20322;-77
2020/12/21 12:34:45;;;;;;;3.20;2.33;;;9.50;99.90;;;;;;5083728;28;20186;-77
2020/12/21 12:37:10;;;;;;;4.10;2.47;;;9.50;99.90;;;;;;5085030;28;20222;-77
2020/12/21 12:39:36;;;;;;;2.80;2.23;;;9.50;99.90;;;;;;5082683;28;20199;-77
2020/12/21 12:42:01;;;;;;;1.90;1.70;;;9.50;99.90;;;;;;5084700;28;20279;-78
2020/12/21 12:44:27;;;;;;;2.33;2.10;;;9.60;99.90;;;;;;5082229;28;20696;-77
2020/12/21 12:46:53;;;;;;;2.40;2.20;;;9.70;99.90;;;;;;5085299;28;20709;-76
2020/12/21 12:49:18;;;;;;;3.90;2.27;;;9.80;99.90;;;;;;5083810;28;20179;-77
2020/12/21 12:51:44;;;;;;;2.83;2.40;;;9.80;99.90;;;;;;5083134;28;20196;-78